Weather at Karpathos Airport

Public forecast

Using degrees Celsius for public forecast. Weather courtesy of forecast.io.

Current aviation weather report (METAR) for Karpathos Airport

Retrieved 2020/11/29 19:30 UTC (0 seconds ago):

LGKP 291930Z AUTO 23006KT //// -RA ////// 16/12 Q1016 RE//

Aviation forecast (TAF) for Karpathos Airport

Forecast is more than 12 hours old.

Retrieved 2020/03/18 09:39 UTC (9 months ago):

TAF TAF LGKP 180800Z 1809/1821 33025G35KT 9999 FEW020